createdAt,value
2023-01-19T00:00:56.453Z,57.15
2023-01-19T00:03:23.373Z,51.88
2023-01-19T00:05:50.234Z,50.15
2023-01-19T00:08:19.469Z,48.05
2023-01-19T00:10:48.677Z,45.75
2023-01-19T00:13:16.293Z,64.85
2023-01-19T00:15:45.091Z,49.00
2023-01-19T00:18:12.172Z,64.97
2023-01-19T00:20:40.390Z,53.42
2023-01-19T00:23:08.364Z,63.67
2023-01-19T00:25:36.096Z,48.97
2023-01-19T00:28:03.224Z,51.83
2023-01-19T00:30:30.523Z,68.28
2023-01-19T00:32:57.432Z,51.85
2023-01-19T00:35:24.396Z,46.25
2023-01-19T00:37:51.677Z,48.00
2023-01-19T00:40:18.567Z,48.25
2023-01-19T00:42:46.110Z,47.13
2023-01-19T00:45:15.550Z,54.63
2023-01-19T00:47:42.729Z,54.17
2023-01-19T00:50:14.011Z,41.58
2023-01-19T00:52:41.873Z,59.90
2023-01-19T00:55:11.118Z,46.03
2023-01-19T00:57:40.521Z,59.55
2023-01-19T01:00:11.797Z,57.25
2023-01-19T01:02:40.255Z,49.88
2023-01-19T01:05:08.753Z,48.70
2023-01-19T01:07:47.048Z,50.47
2023-01-19T01:10:13.958Z,54.55
2023-01-19T01:12:41.474Z,39.83
2023-01-19T01:15:23.122Z,64.38
2023-01-19T01:17:53.164Z,49.47
2023-01-19T01:20:23.323Z,53.80
2023-01-19T01:22:52.608Z,52.10
2023-01-19T01:25:22.774Z,50.50
2023-01-19T01:27:50.367Z,47.53
2023-01-19T01:30:18.350Z,66.07
2023-01-19T01:32:45.379Z,52.80
2023-01-19T01:35:13.394Z,60.58
2023-01-19T01:37:42.680Z,50.35
2023-01-19T01:40:12.984Z,61.30
2023-01-19T01:42:40.693Z,53.05
2023-01-19T01:45:27.071Z,51.08
2023-01-19T01:47:56.912Z,65.00
2023-01-19T01:50:27.718Z,59.58
2023-01-19T01:53:06.783Z,69.38
2023-01-19T01:55:46.121Z,52.95
2023-01-19T01:58:14.693Z,54.63
2023-01-19T02:01:00.984Z,63.72
2023-01-19T02:03:28.842Z,54.83
2023-01-19T02:05:59.707Z,51.15
2023-01-19T02:09:17.366Z,45.15
2023-01-19T02:12:02.959Z,58.25
2023-01-19T02:14:29.840Z,53.35
2023-01-19T02:16:56.939Z,59.88
2023-01-19T02:19:34.451Z,53.05
2023-01-19T02:22:07.969Z,53.55
2023-01-19T02:24:35.804Z,52.40
2023-01-19T02:27:03.489Z,51.00
2023-01-19T02:29:30.782Z,55.17
2023-01-19T02:31:59.882Z,57.90
2023-01-19T02:34:26.914Z,54.25
2023-01-19T02:36:58.476Z,57.90
2023-01-19T02:39:35.330Z,61.10
2023-01-19T02:42:06.788Z,45.17
2023-01-19T02:44:35.681Z,56.20
2023-01-19T02:47:03.791Z,48.53
2023-01-19T02:49:31.046Z,54.30
2023-01-19T02:51:58.920Z,59.22
2023-01-19T02:54:45.342Z,27.83
2023-01-19T02:57:36.359Z,46.55
2023-01-19T03:00:15.311Z,46.47
2023-01-19T03:02:53.617Z,42.38
2023-01-19T03:05:41.607Z,33.38
2023-01-19T03:08:24.892Z,38.25
2023-01-19T03:10:54.844Z,46.38
2023-01-19T03:13:42.827Z,54.08
2023-01-19T03:16:29.864Z,51.33
2023-01-19T03:19:06.601Z,40.88
2023-01-19T03:21:36.045Z,37.67
2023-01-19T03:24:06.461Z,32.90
2023-01-19T03:26:41.104Z,66.07
2023-01-19T03:29:13.748Z,52.63
2023-01-19T03:31:44.777Z,62.30
2023-01-19T03:34:15.369Z,60.13
2023-01-19T03:36:52.758Z,49.55
2023-01-19T03:39:24.425Z,54.05
2023-01-19T03:42:13.983Z,30.27
2023-01-19T03:44:42.724Z,43.05
2023-01-19T03:47:11.839Z,47.00
2023-01-19T03:49:41.747Z,53.55
2023-01-19T03:52:08.732Z,46.67
2023-01-19T03:54:35.812Z,46.38
2023-01-19T03:57:02.899Z,39.70
2023-01-19T03:59:29.864Z,64.93
2023-01-19T04:01:56.674Z,36.63
2023-01-19T04:04:25.649Z,66.53
2023-01-19T04:06:52.610Z,67.75
2023-01-19T04:09:20.190Z,67.85
2023-01-19T04:11:47.104Z,61.20
2023-01-19T04:14:13.972Z,65.55
2023-01-19T04:16:41.005Z,55.28
2023-01-19T04:19:07.899Z,65.32
2023-01-19T04:21:35.415Z,70.15
2023-01-19T04:24:02.290Z,64.93
2023-01-19T04:26:29.212Z,58.60
2023-01-19T04:28:56.217Z,64.57
2023-01-19T04:31:23.477Z,66.85
2023-01-19T04:33:50.539Z,53.38
2023-01-19T04:36:17.496Z,55.25
2023-01-19T04:38:46.739Z,53.65
2023-01-19T04:41:13.575Z,60.95
2023-01-19T04:43:41.012Z,54.10
2023-01-19T04:46:07.965Z,52.15
2023-01-19T04:48:34.878Z,62.50
2023-01-19T04:51:01.870Z,63.08
2023-01-19T04:53:28.714Z,45.83
2023-01-19T04:55:55.605Z,64.97
2023-01-19T04:58:22.572Z,58.20
2023-01-19T05:00:51.292Z,51.15
2023-01-19T05:03:19.396Z,71.03
2023-01-19T05:05:46.772Z,64.68
2023-01-19T05:08:13.693Z,64.43
2023-01-19T05:10:40.566Z,57.47
2023-01-19T05:13:07.493Z,58.47
2023-01-19T05:15:34.325Z,68.30
2023-01-19T05:18:01.264Z,64.60
2023-01-19T05:20:28.170Z,65.65
2023-01-19T05:22:55.032Z,59.95
2023-01-19T05:25:24.829Z,63.85
2023-01-19T05:27:51.770Z,55.88
2023-01-19T05:30:19.470Z,74.05
2023-01-19T05:32:46.648Z,63.10
2023-01-19T05:35:20.227Z,61.08
2023-01-19T05:37:51.906Z,61.20
2023-01-19T05:40:18.886Z,65.20
2023-01-19T05:42:45.720Z,70.38
2023-01-19T05:45:12.586Z,58.90
2023-01-19T05:47:40.054Z,74.15
2023-01-19T05:50:09.802Z,57.20
2023-01-19T05:52:36.636Z,50.35
2023-01-19T05:55:03.553Z,68.28
2023-01-19T05:57:30.367Z,67.82
2023-01-19T05:59:57.223Z,71.07
2023-01-19T06:02:28.713Z,68.15
2023-01-19T06:04:56.536Z,57.08
2023-01-19T06:07:24.481Z,65.07
2023-01-19T06:09:52.195Z,51.10
2023-01-19T06:12:19.064Z,76.15
2023-01-19T06:14:45.906Z,63.97
2023-01-19T06:17:12.751Z,74.45
2023-01-19T06:19:39.579Z,62.55
2023-01-19T06:22:06.541Z,64.20
2023-01-19T06:24:33.377Z,57.28
2023-01-19T06:27:01.453Z,50.60
2023-01-19T06:29:31.023Z,72.07
2023-01-19T06:32:00.169Z,50.22
2023-01-19T06:34:29.457Z,52.15
2023-01-19T06:36:56.660Z,76.93
2023-01-19T06:39:23.728Z,67.07
2023-01-19T06:41:51.598Z,69.35
2023-01-19T06:44:18.427Z,65.85
2023-01-19T06:46:45.781Z,56.13
2023-01-19T06:49:12.925Z,67.13
2023-01-19T06:51:40.339Z,70.43
2023-01-19T06:54:07.809Z,74.13
2023-01-19T06:56:35.124Z,59.15
2023-01-19T06:59:02.075Z,56.22
2023-01-19T07:01:28.985Z,73.18
2023-01-19T07:03:56.091Z,89.35
2023-01-19T07:06:23.027Z,59.60
2023-01-19T07:08:49.891Z,47.20
2023-01-19T07:11:26.219Z,79.75
2023-01-19T07:13:59.740Z,61.70
2023-01-19T07:16:26.847Z,71.97
2023-01-19T07:18:53.873Z,65.18
2023-01-19T07:21:21.787Z,68.95
2023-01-19T07:23:50.594Z,57.85
2023-01-19T07:26:21.848Z,72.95
2023-01-19T07:28:49.525Z,49.65
2023-01-19T07:31:17.244Z,79.57
2023-01-19T07:33:44.712Z,62.05
2023-01-19T07:36:12.810Z,91.05
2023-01-19T07:38:40.267Z,86.15
2023-01-19T07:41:09.734Z,72.63
2023-01-19T07:43:36.950Z,66.47
2023-01-19T07:46:06.032Z,69.15
2023-01-19T07:48:33.110Z,76.55
2023-01-19T07:51:05.952Z,63.15
2023-01-19T07:53:33.109Z,71.82
2023-01-19T07:56:00.249Z,62.05
2023-01-19T07:58:28.271Z,81.63
2023-01-19T08:00:55.466Z,63.38
2023-01-19T08:03:22.847Z,64.07
2023-01-19T08:05:52.154Z,88.03
2023-01-19T08:08:19.552Z,73.47
2023-01-19T08:10:52.738Z,66.75
2023-01-19T08:13:20.069Z,78.50
2023-01-19T08:15:51.922Z,80.20
2023-01-19T08:18:19.548Z,81.75
2023-01-19T08:20:46.820Z,68.93
2023-01-19T08:23:18.121Z,82.18
2023-01-19T08:25:46.460Z,66.25
2023-01-19T08:28:16.354Z,85.93
2023-01-19T08:30:45.065Z,80.63
2023-01-19T08:33:13.618Z,68.43
2023-01-19T08:35:42.940Z,58.08
2023-01-19T08:38:10.741Z,85.60
2023-01-19T08:40:40.469Z,63.17
2023-01-19T08:43:10.079Z,83.65
2023-01-19T08:45:38.646Z,94.65
2023-01-19T08:48:06.488Z,76.28
2023-01-19T08:50:34.594Z,46.42
2023-01-19T08:53:04.001Z,65.97
2023-01-19T08:55:30.953Z,78.65
2023-01-19T08:58:00.048Z,69.10
2023-01-19T09:00:28.284Z,68.47
2023-01-19T09:02:56.686Z,70.70
2023-01-19T09:05:23.923Z,63.53
2023-01-19T09:07:51.824Z,60.22
2023-01-19T09:10:20.806Z,63.72
2023-01-19T09:12:47.644Z,69.30
2023-01-19T09:15:14.499Z,56.10
2023-01-19T09:17:44.665Z,57.30
2023-01-19T09:20:11.802Z,59.55
2023-01-19T09:22:39.778Z,77.70
2023-01-19T09:25:08.121Z,57.88
2023-01-19T09:27:35.065Z,54.50
2023-01-19T09:30:02.937Z,58.75
2023-01-19T09:32:29.997Z,48.35
2023-01-19T09:34:56.956Z,32.78
2023-01-19T09:37:24.688Z,54.28
2023-01-19T09:39:51.605Z,49.78
2023-01-19T09:42:33.432Z,40.95
2023-01-19T09:45:07.222Z,43.92
2023-01-19T09:47:36.896Z,55.33
2023-01-19T09:50:10.652Z,75.72
2023-01-19T09:52:41.710Z,41.95
2023-01-19T09:55:21.667Z,50.35
2023-01-19T09:57:48.540Z,45.22
2023-01-19T10:00:18.233Z,63.53
2023-01-19T10:03:07.712Z,62.72
2023-01-19T10:05:47.097Z,55.75
2023-01-19T10:08:22.128Z,53.40
2023-01-19T10:10:54.744Z,39.05
2023-01-19T10:13:36.697Z,54.58
2023-01-19T10:16:43.233Z,57.53
2023-01-19T10:19:27.112Z,51.03
2023-01-19T10:21:59.895Z,42.75
2023-01-19T10:24:38.673Z,59.42
2023-01-19T10:27:18.049Z,40.60
2023-01-19T10:29:46.193Z,37.53
2023-01-19T10:32:34.288Z,33.90
2023-01-19T10:35:10.700Z,44.55
2023-01-19T10:37:39.309Z,52.83
2023-01-19T10:40:09.237Z,38.63
2023-01-19T10:42:38.409Z,53.17
2023-01-19T10:45:19.402Z,39.22
2023-01-19T10:47:48.469Z,42.65
2023-01-19T10:50:30.814Z,41.28
2023-01-19T10:53:00.869Z,40.53
2023-01-19T10:55:29.789Z,32.25
2023-01-19T10:57:57.458Z,37.78
2023-01-19T11:00:30.473Z,39.80
2023-01-19T11:02:57.436Z,42.00
2023-01-19T11:05:27.599Z,34.63
2023-01-19T11:07:54.666Z,35.25
2023-01-19T11:10:22.120Z,34.90
2023-01-19T11:13:13.057Z,40.25
2023-01-19T11:15:44.199Z,24.17
2023-01-19T11:18:30.314Z,30.33
2023-01-19T11:21:02.340Z,27.27
2023-01-19T11:23:45.353Z,30.15
2023-01-19T11:26:24.779Z,41.08
2023-01-19T11:28:54.725Z,22.38
2023-01-19T11:31:27.581Z,34.20
2023-01-19T11:34:01.127Z,32.35
2023-01-19T11:36:30.917Z,30.92
2023-01-19T11:39:00.582Z,33.15
2023-01-19T11:41:37.391Z,27.75
2023-01-19T11:44:26.930Z,32.30
2023-01-19T11:47:06.082Z,32.95
2023-01-19T11:49:47.127Z,30.98
2023-01-19T11:52:25.141Z,33.60
2023-01-19T11:55:01.677Z,38.72
2023-01-19T11:57:29.654Z,38.55
2023-01-19T11:59:58.767Z,37.13
2023-01-19T12:02:30.790Z,27.85
2023-01-19T12:05:06.720Z,31.60
2023-01-19T12:07:37.274Z,38.70
2023-01-19T12:10:29.763Z,32.72
2023-01-19T12:12:57.746Z,31.27
2023-01-19T12:15:42.304Z,30.15
2023-01-19T12:18:34.678Z,40.08
2023-01-19T12:21:04.106Z,26.00
2023-01-19T12:24:05.191Z,26.90
2023-01-19T12:26:42.319Z,35.58
2023-01-19T12:29:15.865Z,28.92
2023-01-19T12:31:43.441Z,29.02
2023-01-19T12:34:25.777Z,24.80
2023-01-19T12:36:57.602Z,25.48
2023-01-19T12:39:26.734Z,28.65
2023-01-19T12:42:08.060Z,25.05
2023-01-19T12:44:36.099Z,19.58
2023-01-19T12:47:14.757Z,21.35
2023-01-19T12:49:52.402Z,23.40
2023-01-19T12:52:41.391Z,24.10
2023-01-19T12:55:15.171Z,22.95
2023-01-19T12:58:15.505Z,18.70
2023-01-19T13:00:45.432Z,16.17
2023-01-19T13:03:18.245Z,20.13
2023-01-19T13:05:52.724Z,14.82
2023-01-19T13:08:29.996Z,19.23
2023-01-19T13:11:03.631Z,17.65
2023-01-19T13:13:37.792Z,15.45
2023-01-19T13:16:21.397Z,22.35
2023-01-19T13:19:06.916Z,21.15
2023-01-19T13:21:44.272Z,15.73
2023-01-19T13:24:15.032Z,20.67
2023-01-19T13:26:55.304Z,19.95
2023-01-19T13:29:33.151Z,19.77
2023-01-19T13:32:03.797Z,24.30
2023-01-19T13:34:46.988Z,25.70
2023-01-19T13:37:29.357Z,35.38
2023-01-19T13:40:04.874Z,26.60
2023-01-19T13:42:37.953Z,24.70
2023-01-19T13:45:22.515Z,32.28
2023-01-19T13:47:51.730Z,21.40
2023-01-19T13:50:24.580Z,27.95
2023-01-19T13:53:00.411Z,27.80
2023-01-19T13:55:31.841Z,25.83
2023-01-19T13:57:59.177Z,30.52
2023-01-19T14:00:32.152Z,29.80
2023-01-19T14:03:09.962Z,34.75
2023-01-19T14:05:42.660Z,23.88
2023-01-19T14:08:12.432Z,28.88
2023-01-19T14:10:42.119Z,30.92
2023-01-19T14:13:17.551Z,30.52
2023-01-19T14:15:49.237Z,30.15
2023-01-19T14:18:16.793Z,27.23
2023-01-19T14:20:54.340Z,31.75
2023-01-19T14:23:47.217Z,22.90
2023-01-19T14:26:38.841Z,29.38
2023-01-19T14:29:29.076Z,31.50
2023-01-19T14:32:28.221Z,24.27
2023-01-19T14:35:05.017Z,21.55
2023-01-19T14:37:38.431Z,25.05
2023-01-19T14:40:10.824Z,28.70
2023-01-19T14:42:45.797Z,49.50
2023-01-19T14:45:27.891Z,30.73
2023-01-19T14:48:15.830Z,35.88
2023-01-19T14:50:57.605Z,23.92
2023-01-19T14:53:32.648Z,32.83
2023-01-19T14:56:04.604Z,41.17
2023-01-19T14:58:35.077Z,40.00
2023-01-19T15:01:02.988Z,32.80
2023-01-19T15:03:44.750Z,34.15
2023-01-19T15:06:21.839Z,35.55
2023-01-19T15:08:53.297Z,31.38
2023-01-19T15:11:25.340Z,44.10
2023-01-19T15:13:52.595Z,35.55
2023-01-19T15:16:20.184Z,33.88
2023-01-19T15:18:47.062Z,43.72
2023-01-19T15:21:16.134Z,37.65
2023-01-19T15:23:43.060Z,47.65
2023-01-19T15:26:17.729Z,36.47
2023-01-19T15:28:46.138Z,41.42
2023-01-19T15:31:18.996Z,38.45
2023-01-19T15:33:46.220Z,39.10
2023-01-19T15:36:24.319Z,47.97
2023-01-19T15:38:58.336Z,42.13
2023-01-19T15:41:27.520Z,36.15
2023-01-19T15:43:54.361Z,40.42
2023-01-19T15:46:22.598Z,41.70
2023-01-19T15:48:50.688Z,44.38
2023-01-19T15:51:25.203Z,37.90
2023-01-19T15:53:55.449Z,46.58
2023-01-19T15:56:24.769Z,31.80
2023-01-19T15:58:53.019Z,32.25
2023-01-19T16:01:23.292Z,31.05
2023-01-19T16:03:52.602Z,33.67
2023-01-19T16:06:19.459Z,36.50
2023-01-19T16:08:46.479Z,24.75
2023-01-19T16:11:15.179Z,34.00
2023-01-19T16:13:46.344Z,22.27
2023-01-19T16:16:22.371Z,16.02
2023-01-19T16:18:49.881Z,23.85
2023-01-19T16:21:17.303Z,14.05
2023-01-19T16:23:44.278Z,13.55
2023-01-19T16:26:28.228Z,14.32
2023-01-19T16:29:08.832Z,29.15
2023-01-19T16:31:40.103Z,40.22
2023-01-19T16:34:07.828Z,30.38
2023-01-19T16:36:37.056Z,29.40
2023-01-19T16:39:11.106Z,27.10
2023-01-19T16:41:38.715Z,20.75
2023-01-19T16:44:06.529Z,26.80
2023-01-19T16:46:38.911Z,11.27
2023-01-19T16:49:17.839Z,8.77
2023-01-19T16:51:47.906Z,16.25
2023-01-19T16:54:17.788Z,15.88
2023-01-19T16:56:44.706Z,21.08
2023-01-19T16:59:14.379Z,19.98
2023-01-19T17:01:42.077Z,16.65
2023-01-19T17:04:09.179Z,16.05
2023-01-19T17:06:36.312Z,12.20
2023-01-19T17:09:03.688Z,15.43
2023-01-19T17:11:33.022Z,15.23
2023-01-19T17:14:08.283Z,29.50
2023-01-19T17:16:36.054Z,22.23
2023-01-19T17:19:04.960Z,23.98
2023-01-19T17:21:34.064Z,24.33
2023-01-19T17:24:01.183Z,25.65
2023-01-19T17:26:30.975Z,21.02
2023-01-19T17:29:02.332Z,26.10
2023-01-19T17:31:33.286Z,19.65
2023-01-19T17:34:01.101Z,20.80
2023-01-19T17:36:30.815Z,33.92
2023-01-19T17:39:00.126Z,32.78
2023-01-19T17:41:33.411Z,20.67
2023-01-19T17:44:03.976Z,17.98
2023-01-19T17:46:31.692Z,15.95
2023-01-19T17:49:03.696Z,9.85
2023-01-19T17:51:32.316Z,16.52
2023-01-19T17:53:59.773Z,14.88
2023-01-19T17:56:30.467Z,19.83
2023-01-19T17:58:58.495Z,16.20
2023-01-19T18:01:31.016Z,18.52
2023-01-19T18:04:07.876Z,14.68
2023-01-19T18:06:35.908Z,22.58
2023-01-19T18:09:04.965Z,21.50
2023-01-19T18:11:32.092Z,27.40
2023-01-19T18:14:02.595Z,21.63
2023-01-19T18:16:31.016Z,24.38
2023-01-19T18:18:57.865Z,16.02
2023-01-19T18:21:29.088Z,17.75
2023-01-19T18:24:04.556Z,19.83
2023-01-19T18:26:33.423Z,19.42
2023-01-19T18:29:00.622Z,20.35
2023-01-19T18:31:27.999Z,14.20
2023-01-19T18:33:55.302Z,29.95
2023-01-19T18:36:22.865Z,49.40
2023-01-19T18:38:50.126Z,35.20
2023-01-19T18:41:19.388Z,31.50
2023-01-19T18:43:48.095Z,22.92
2023-01-19T18:46:15.907Z,25.50
2023-01-19T18:48:42.921Z,17.65
2023-01-19T18:51:14.222Z,15.77
2023-01-19T18:53:41.869Z,22.92
2023-01-19T18:56:15.400Z,21.25
2023-01-19T18:58:42.711Z,13.60
2023-01-19T19:01:36.574Z,15.88
2023-01-19T19:04:03.617Z,13.07
2023-01-19T19:06:30.605Z,19.27
2023-01-19T19:08:59.439Z,20.25
2023-01-19T19:11:28.124Z,20.92
2023-01-19T19:14:01.031Z,8.98
2023-01-19T19:16:29.673Z,20.10
2023-01-19T19:18:56.669Z,20.17
2023-01-19T19:21:25.410Z,31.00
2023-01-19T19:23:54.462Z,20.35
2023-01-19T19:26:25.492Z,26.33
2023-01-19T19:28:54.820Z,21.70
2023-01-19T19:31:23.412Z,17.67
2023-01-19T19:33:51.376Z,19.58
2023-01-19T19:36:20.652Z,21.55
2023-01-19T19:38:49.507Z,21.00
2023-01-19T19:41:19.984Z,24.92
2023-01-19T19:43:47.721Z,31.00
2023-01-19T19:46:16.709Z,39.75
2023-01-19T19:48:43.883Z,30.30
2023-01-19T19:51:19.020Z,40.38
2023-01-19T19:53:49.064Z,37.60
2023-01-19T19:56:21.704Z,35.65
2023-01-19T19:58:50.153Z,28.85
2023-01-19T20:01:25.315Z,33.08
2023-01-19T20:06:23.813Z,38.00
2023-01-19T20:08:56.108Z,33.50
2023-01-19T20:11:28.146Z,36.95
2023-01-19T20:13:55.428Z,34.33
2023-01-19T20:16:23.604Z,40.15
2023-01-19T20:18:54.560Z,36.83
2023-01-19T20:21:25.500Z,40.30
2023-01-19T20:23:53.570Z,38.60
2023-01-19T20:26:28.075Z,38.47
2023-01-19T20:29:00.058Z,43.47
2023-01-19T20:31:30.614Z,52.22
2023-01-19T20:34:00.186Z,39.58
2023-01-19T20:36:27.257Z,45.65
2023-01-19T20:38:55.375Z,40.67
2023-01-19T20:41:23.499Z,41.10
2023-01-19T20:43:50.830Z,45.45
2023-01-19T20:46:18.452Z,46.05
2023-01-19T20:48:50.832Z,46.95
2023-01-19T20:51:18.938Z,50.58
2023-01-19T20:53:46.370Z,45.75
2023-01-19T20:56:15.398Z,44.85
2023-01-19T20:58:42.763Z,52.85
2023-01-19T21:01:14.576Z,42.95
2023-01-19T21:03:42.074Z,51.00
2023-01-19T21:06:09.524Z,53.17
2023-01-19T21:08:37.143Z,56.45
2023-01-19T21:11:06.816Z,43.47
2023-01-19T21:13:36.625Z,44.67
2023-01-19T21:16:06.658Z,42.75
2023-01-19T21:18:33.777Z,55.53
2023-01-19T21:21:01.104Z,56.20
2023-01-19T21:23:28.750Z,46.58
2023-01-19T21:25:57.925Z,45.30
2023-01-19T21:28:26.312Z,52.70
2023-01-19T21:30:54.213Z,50.50
2023-01-19T21:33:23.638Z,60.15
2023-01-19T21:35:56.302Z,55.83
2023-01-19T21:38:24.943Z,46.13
2023-01-19T21:40:51.984Z,46.85
2023-01-19T21:43:20.179Z,48.00
2023-01-19T21:45:48.548Z,55.25
2023-01-19T21:48:16.814Z,54.88
2023-01-19T21:50:43.914Z,45.67
2023-01-19T21:53:11.503Z,38.17
2023-01-19T21:55:43.125Z,42.13
2023-01-19T21:58:10.004Z,37.67
2023-01-19T22:00:36.807Z,32.05
2023-01-19T22:03:04.724Z,22.80
2023-01-19T22:05:36.934Z,25.77
2023-01-19T22:08:05.199Z,23.38
2023-01-19T22:10:34.792Z,24.25
2023-01-19T22:13:01.751Z,22.23
2023-01-19T22:15:31.446Z,20.85
2023-01-19T22:18:01.175Z,24.17
2023-01-19T22:20:28.442Z,20.25
2023-01-19T22:22:58.370Z,18.50
2023-01-19T22:25:27.881Z,21.15
2023-01-19T22:27:55.770Z,36.80
2023-01-19T22:30:22.754Z,50.00
2023-01-19T22:32:50.024Z,42.22
2023-01-19T22:35:16.997Z,52.47
2023-01-19T22:37:43.875Z,48.40
2023-01-19T22:40:11.493Z,55.70
2023-01-19T22:42:38.375Z,53.63
2023-01-19T22:45:05.779Z,58.35
2023-01-19T22:47:32.617Z,50.65
2023-01-19T22:49:59.485Z,52.63
2023-01-19T22:52:26.426Z,66.10
2023-01-19T22:54:56.401Z,56.40
2023-01-19T22:57:23.453Z,40.30
2023-01-19T22:59:50.315Z,49.22
2023-01-19T23:02:20.597Z,45.67
2023-01-19T23:04:47.846Z,45.35
2023-01-19T23:07:14.899Z,31.88
2023-01-19T23:09:42.834Z,59.75
2023-01-19T23:12:09.687Z,32.58
2023-01-19T23:14:36.787Z,24.45
2023-01-19T23:17:06.564Z,30.92
2023-01-19T23:19:33.858Z,21.23
2023-01-19T23:22:00.628Z,21.42
2023-01-19T23:24:28.069Z,18.48
2023-01-19T23:26:54.932Z,10.80
2023-01-19T23:29:22.304Z,13.77
2023-01-19T23:31:50.413Z,20.38
2023-01-19T23:34:17.990Z,17.90
2023-01-19T23:36:44.901Z,21.60
2023-01-19T23:39:16.195Z,25.45
2023-01-19T23:41:46.454Z,25.15
2023-01-19T23:44:13.724Z,25.77
2023-01-19T23:46:40.674Z,17.88
2023-01-19T23:49:07.587Z,20.40
2023-01-19T23:51:34.637Z,28.27
2023-01-19T23:54:01.580Z,27.23
2023-01-19T23:56:31.865Z,24.63
2023-01-19T23:59:07.071Z,20.25
